Time;durP1;ratioP1;P1;durP2;ratioP2;P2;SDS_P1;SDS_P2;PMS_P1;PMS_P2;Temp;Humidity;BMP_temperature;BMP_pressure;BME280_temperature;BME280_humidity;BME280_pressure;Samples;Min_cycle;Max_cycle;Signal;HPM_P1;HPM_P2
2022/11/08 00:01:33;;;;;;;69.10;10.70;;;9.60;1.00;;;;;;5072439;28;20440;-73
2022/11/08 00:04:03;;;;;;;69.30;10.67;;;9.70;1.00;;;;;;5071831;28;20507;-72
2022/11/08 00:14:45;;;;;;;72.03;10.30;;;9.70;1.00;;;;;;5071666;28;20842;-73
2022/11/08 00:17:13;;;;;;;64.00;9.97;;;9.70;1.00;;;;;;5071783;28;20471;-73
2022/11/08 00:19:42;;;;;;;68.90;10.33;;;9.70;1.00;;;;;;5071078;28;20454;-73
2022/11/08 00:22:10;;;;;;;71.87;10.47;;;9.70;1.00;;;;;;5071505;28;20459;-72
2022/11/08 00:24:36;;;;;;;68.17;10.80;;;9.70;1.00;;;;;;5071557;28;20523;-73
2022/11/08 00:27:05;;;;;;;67.63;10.00;;;9.70;1.00;;;;;;5071333;28;20464;-72
2022/11/08 00:29:33;;;;;;;68.30;10.20;;;9.60;1.00;;;;;;5071012;28;20941;-73
2022/11/08 00:32:00;;;;;;;66.47;9.63;;;9.60;1.00;;;;;;5071684;28;20440;-73
2022/11/08 00:34:26;;;;;;;65.00;8.93;;;9.70;1.00;;;;;;5071445;28;20481;-73
2022/11/08 00:36:55;;;;;;;69.50;10.57;;;9.60;1.00;;;;;;5071585;28;20444;-72
2022/11/08 00:39:21;;;;;;;68.23;12.27;;;9.60;1.00;;;;;;5070643;28;20452;-72
2022/11/08 00:41:48;;;;;;;70.67;10.80;;;9.60;1.00;;;;;;5071303;28;20445;-73
2022/11/08 00:44:15;;;;;;;66.17;10.23;;;9.60;1.00;;;;;;5071669;28;20451;-73
2022/11/08 00:46:42;;;;;;;69.97;11.83;;;9.50;1.00;;;;;;5071359;28;20967;-72
2022/11/08 00:49:09;;;;;;;69.60;11.90;;;9.50;1.00;;;;;;5070654;28;20480;-72
2022/11/08 00:51:37;;;;;;;68.90;10.57;;;9.50;1.00;;;;;;5071389;28;20806;-72
2022/11/08 00:54:05;;;;;;;67.80;10.60;;;9.50;1.00;;;;;;5071137;28;21041;-72
2022/11/08 00:56:32;;;;;;;71.00;11.13;;;9.50;1.00;;;;;;5071203;28;20449;-72
2022/11/08 00:59:00;;;;;;;66.77;10.80;;;9.40;1.00;;;;;;5070593;28;20466;-72
2022/11/08 01:01:27;;;;;;;69.33;11.00;;;9.40;1.00;;;;;;5071394;28;20446;-73
2022/11/08 01:03:54;;;;;;;64.30;10.57;;;9.40;1.00;;;;;;5071242;28;20457;-72
2022/11/08 01:06:23;;;;;;;67.33;10.77;;;9.40;1.00;;;;;;5071452;28;20455;-73
2022/11/08 01:08:50;;;;;;;66.10;9.87;;;9.30;1.00;;;;;;5071954;28;21070;-72
2022/11/08 01:11:21;;;;;;;64.43;9.50;;;9.30;1.00;;;;;;5075272;28;20452;-73
2022/11/08 01:13:49;;;;;;;65.70;10.70;;;9.30;1.00;;;;;;5075019;28;20226;-72
2022/11/08 01:16:17;;;;;;;63.57;9.40;;;9.20;1.00;;;;;;5075009;28;20443;-73
2022/11/08 01:18:45;;;;;;;65.93;9.95;;;9.20;1.00;;;;;;5074046;28;20467;-72
2022/11/08 01:21:13;;;;;;;70.90;9.67;;;9.20;1.00;;;;;;5075229;28;20213;-73
2022/11/08 01:23:41;;;;;;;67.07;9.57;;;9.10;1.00;;;;;;5074686;28;20458;-72
2022/11/08 01:26:10;;;;;;;69.83;8.80;;;9.10;1.00;;;;;;5074718;28;20538;-73
2022/11/08 01:28:39;;;;;;;66.83;10.03;;;9.10;1.00;;;;;;5073753;28;20468;-73
2022/11/08 01:31:08;;;;;;;65.60;9.50;;;9.00;1.00;;;;;;5074554;28;20822;-73
2022/11/08 01:33:35;;;;;;;65.28;8.95;;;9.00;1.00;;;;;;5074349;28;20564;-73
2022/11/08 01:36:02;;;;;;;68.43;10.37;;;9.00;1.00;;;;;;5074309;28;20693;-73
2022/11/08 01:38:28;;;;;;;65.53;9.40;;;9.00;1.00;;;;;;5074172;28;20468;-73
2022/11/08 01:40:55;;;;;;;64.23;10.00;;;9.00;1.00;;;;;;5074024;28;20209;-73
2022/11/08 01:43:41;;;;;;;65.00;10.30;;;9.00;1.00;;;;;;5074155;28;20454;-73
2022/11/08 01:46:36;;;;;;;68.17;10.03;;;8.90;1.00;;;;;;5074215;28;20457;-74
2022/11/08 01:49:21;;;;;;;66.07;9.37;;;8.90;1.00;;;;;;5073246;28;20980;-73
2022/11/08 01:51:52;;;;;;;65.20;9.10;;;8.80;1.00;;;;;;5073002;28;20839;-73
2022/11/08 01:54:24;;;;;;;64.43;8.55;;;8.90;1.00;;;;;;5074076;28;20494;-74
2022/11/08 01:56:51;;;;;;;66.23;9.20;;;8.90;1.00;;;;;;5073891;28;20212;-73
2022/11/08 01:59:19;;;;;;;64.77;9.43;;;8.80;1.00;;;;;;5073465;28;20478;-73
2022/11/08 02:01:47;;;;;;;64.82;8.60;;;8.80;1.00;;;;;;5074045;28;20479;-73
2022/11/08 02:04:15;;;;;;;65.97;9.07;;;8.80;1.00;;;;;;5073988;28;20713;-73
2022/11/08 02:06:43;;;;;;;64.97;8.15;;;8.80;1.00;;;;;;5073872;28;20448;-74
2022/11/08 02:09:14;;;;;;;67.80;8.55;;;8.80;1.00;;;;;;5072818;28;20713;-73
2022/11/08 02:11:41;;;;;;;65.45;8.70;;;8.80;1.00;;;;;;5074073;28;20209;-73
2022/11/08 02:14:08;;;;;;;66.07;8.98;;;8.80;1.00;;;;;;5073700;28;20221;-73
2022/11/08 02:16:36;;;;;;;63.17;8.35;;;8.70;1.00;;;;;;5070868;28;20208;-72
2022/11/08 02:19:05;;;;;;;71.68;9.77;;;8.70;1.00;;;;;;5072444;28;20235;-73
2022/11/08 02:21:39;;;;;;;65.13;9.02;;;8.70;1.00;;;;;;5072966;28;20202;-73
2022/11/08 02:24:10;;;;;;;69.70;8.30;;;8.60;1.00;;;;;;5073493;28;20588;-73
2022/11/08 02:26:38;;;;;;;66.63;9.87;;;8.60;1.00;;;;;;5073456;28;20452;-73
2022/11/08 02:29:27;;;;;;;64.00;9.37;;;8.60;1.00;;;;;;5072477;28;20474;-73
2022/11/08 02:31:54;;;;;;;66.93;9.23;;;8.60;1.00;;;;;;5073361;28;20951;-73
2022/11/08 02:34:24;;;;;;;63.20;8.32;;;8.60;1.00;;;;;;5073272;28;20483;-73
2022/11/08 02:36:51;;;;;;;63.45;8.73;;;8.50;1.00;;;;;;5073617;28;20205;-73
2022/11/08 02:39:20;;;;;;;64.63;9.07;;;8.50;1.00;;;;;;5072381;28;20590;-73
2022/11/08 02:41:46;;;;;;;64.90;9.27;;;8.50;1.00;;;;;;5073080;28;20586;-73
2022/11/08 02:44:13;;;;;;;65.00;8.68;;;8.40;1.00;;;;;;5073031;28;20222;-73
2022/11/08 02:46:40;;;;;;;64.00;9.47;;;8.40;1.00;;;;;;5073070;28;20209;-73
2022/11/08 02:49:06;;;;;;;63.72;8.40;;;8.40;1.00;;;;;;5072024;28;20472;-72
2022/11/08 02:51:33;;;;;;;63.70;8.93;;;8.40;1.00;;;;;;5072976;28;20201;-73
2022/11/08 02:54:00;;;;;;;65.33;9.10;;;8.40;1.00;;;;;;5072690;28;20736;-73
2022/11/08 02:56:28;;;;;;;65.07;8.82;;;8.40;1.00;;;;;;5072967;28;20448;-73
2022/11/08 02:58:55;;;;;;;64.60;9.20;;;8.40;1.00;;;;;;5072089;28;20240;-73
2022/11/08 03:01:22;;;;;;;64.35;8.70;;;8.40;1.00;;;;;;5072719;28;20444;-73
2022/11/08 03:03:48;;;;;;;63.30;9.13;;;8.30;1.00;;;;;;5072706;28;20202;-73
2022/11/08 03:06:15;;;;;;;66.40;8.60;;;8.30;1.00;;;;;;5072590;28;20447;-73
2022/11/08 03:08:42;;;;;;;64.93;8.50;;;8.30;1.00;;;;;;5072078;28;20713;-73
2022/11/08 03:11:09;;;;;;;66.87;8.50;;;8.30;1.00;;;;;;5072407;28;20212;-73
2022/11/08 03:13:37;;;;;;;63.88;8.07;;;8.20;1.00;;;;;;5072488;28;20493;-73
2022/11/08 03:16:04;;;;;;;64.40;8.70;;;8.20;1.00;;;;;;5072316;28;20217;-72
2022/11/08 03:18:31;;;;;;;63.28;8.60;;;8.20;1.00;;;;;;5072003;28;20233;-71
2022/11/08 03:20:59;;;;;;;65.78;8.55;;;8.20;1.00;;;;;;5072348;28;20202;-73
2022/11/08 03:23:26;;;;;;;65.28;8.55;;;8.20;1.00;;;;;;5072274;28;20586;-73
2022/11/08 03:25:53;;;;;;;64.18;8.10;;;8.20;1.00;;;;;;5072629;28;20201;-73
2022/11/08 03:28:20;;;;;;;64.65;7.80;;;8.10;1.00;;;;;;5071985;28;20232;-72
2022/11/08 03:30:50;;;;;;;66.50;9.00;;;8.10;1.00;;;;;;5071341;28;20200;-73
2022/11/08 03:33:17;;;;;;;65.70;9.20;;;8.20;1.00;;;;;;5072356;28;20225;-73
2022/11/08 03:35:43;;;;;;;66.57;9.02;;;8.10;1.00;;;;;;5072060;28;20204;-73
2022/11/08 03:38:10;;;;;;;65.35;9.07;;;8.10;1.00;;;;;;5072111;28;20225;-72
2022/11/08 03:40:37;;;;;;;64.30;8.60;;;8.10;1.00;;;;;;5071644;28;20209;-73
2022/11/08 03:43:04;;;;;;;65.57;8.80;;;8.10;1.00;;;;;;5072028;28;20677;-73
2022/11/08 03:45:30;;;;;;;64.47;8.73;;;8.00;1.00;;;;;;5071969;28;20212;-73
2022/11/08 03:47:59;;;;;;;66.30;8.30;;;8.00;1.00;;;;;;5071818;28;20600;-73
2022/11/08 03:50:25;;;;;;;63.30;8.60;;;7.90;1.00;;;;;;5071008;28;20201;-73
2022/11/08 03:52:54;;;;;;;63.50;8.38;;;7.90;1.00;;;;;;5072169;28;20209;-73
2022/11/08 03:55:22;;;;;;;63.30;7.72;;;7.90;1.00;;;;;;5071904;28;20660;-73
2022/11/08 03:57:50;;;;;;;65.18;8.82;;;7.90;1.00;;;;;;5071909;28;20713;-73
2022/11/08 04:00:19;;;;;;;65.85;8.60;;;8.00;1.00;;;;;;5071058;28;20201;-73
2022/11/08 04:02:46;;;;;;;65.05;7.90;;;7.90;1.00;;;;;;5071726;28;20209;-73
2022/11/08 04:05:15;;;;;;;66.30;9.07;;;7.90;1.00;;;;;;5071669;28;20661;-73
2022/11/08 04:07:42;;;;;;;65.45;8.32;;;7.90;1.00;;;;;;5071703;28;20230;-73
2022/11/08 04:10:11;;;;;;;63.60;7.68;;;7.80;1.00;;;;;;5071121;28;20211;-73
2022/11/08 04:15:23;;;;;;;64.20;8.52;;;7.80;1.00;;;;;;5072038;28;20228;-73
2022/11/08 04:23:24;;;;;;;66.25;8.43;;;7.70;1.00;;;;;;5071530;28;20215;-73
2022/11/08 04:25:55;;;;;;;62.70;7.88;;;7.60;1.00;;;;;;5071372;28;20715;-73
2022/11/08 04:28:25;;;;;;;65.10;7.93;;;7.70;1.00;;;;;;5071288;28;20714;-73
2022/11/08 04:30:53;;;;;;;66.35;9.13;;;7.70;1.00;;;;;;5070988;28;20213;-73
2022/11/08 04:33:20;;;;;;;68.40;9.13;;;7.70;1.00;;;;;;5071481;28;20239;-73
2022/11/08 04:35:49;;;;;;;64.68;8.32;;;7.60;1.00;;;;;;5071460;28;20201;-73
2022/11/08 04:38:16;;;;;;;66.47;9.13;;;7.70;1.00;;;;;;5071099;28;20257;-73
2022/11/08 04:40:42;;;;;;;64.53;8.27;;;7.70;1.00;;;;;;5070658;28;20729;-73
2022/11/08 04:43:09;;;;;;;63.08;8.02;;;7.50;1.00;;;;;;5072317;28;20209;-73
2022/11/08 04:45:36;;;;;;;65.80;8.75;;;7.50;1.00;;;;;;5075452;28;20201;-73
2022/11/08 04:48:03;;;;;;;64.30;8.15;;;7.50;1.00;;;;;;5075187;28;20228;-73
2022/11/08 04:50:30;;;;;;;68.18;8.88;;;7.50;1.00;;;;;;5074478;28;20231;-72
2022/11/08 04:52:58;;;;;;;65.53;8.50;;;7.50;1.00;;;;;;5075089;28;20675;-74
2022/11/08 04:55:25;;;;;;;64.68;8.30;;;7.50;1.00;;;;;;5075284;28;20231;-73
2022/11/08 04:57:52;;;;;;;65.18;7.60;;;7.50;1.00;;;;;;5075202;28;20614;-73
2022/11/08 05:00:19;;;;;;;65.65;9.07;;;7.40;1.00;;;;;;5074369;28;20205;-72
2022/11/08 05:02:46;;;;;;;64.03;8.30;;;7.40;1.00;;;;;;5074857;28;20673;-73
2022/11/08 05:05:12;;;;;;;67.43;8.20;;;7.40;1.00;;;;;;5074829;28;20296;-72
2022/11/08 05:07:39;;;;;;;62.58;7.93;;;7.40;1.00;;;;;;5074727;28;20296;-72
2022/11/08 05:10:08;;;;;;;63.75;7.72;;;7.30;1.00;;;;;;5074252;28;20211;-72
2022/11/08 05:12:35;;;;;;;62.97;7.63;;;7.30;1.00;;;;;;5075047;28;20569;-71
2022/11/08 05:15:02;;;;;;;64.00;8.80;;;7.30;1.00;;;;;;5074988;28;20232;-72
2022/11/08 05:17:28;;;;;;;65.28;8.40;;;7.20;1.00;;;;;;5074678;28;20225;-71
2022/11/08 05:25:25;;;;;;;66.13;9.25;;;7.20;1.00;;;;;;5074740;28;20768;-72
2022/11/08 05:27:51;;;;;;;66.13;8.50;;;7.10;1.00;;;;;;5074569;28;20256;-72
2022/11/08 05:30:18;;;;;;;66.05;8.40;;;7.10;1.00;;;;;;5073609;28;20215;-72
2022/11/08 05:32:45;;;;;;;68.93;8.57;;;7.20;1.00;;;;;;5074633;28;20572;-72
2022/11/08 05:35:12;;;;;;;63.40;8.18;;;7.20;1.00;;;;;;5074459;28;20251;-72
2022/11/08 05:37:41;;;;;;;65.13;8.30;;;7.20;1.00;;;;;;5074358;28;20224;-72
2022/11/08 05:40:10;;;;;;;66.40;9.40;;;7.20;1.00;;;;;;5073615;28;20611;-72
2022/11/08 05:42:38;;;;;;;67.35;8.40;;;7.10;1.00;;;;;;5074249;28;20209;-71
2022/11/08 05:45:05;;;;;;;63.80;7.85;;;7.10;1.00;;;;;;5074039;28;20209;-72
2022/11/08 05:47:32;;;;;;;63.92;8.05;;;7.10;1.00;;;;;;5074306;28;20249;-72
2022/11/08 05:49:58;;;;;;;63.17;8.02;;;7.20;1.00;;;;;;5073477;28;20560;-72
2022/11/08 05:52:25;;;;;;;65.68;9.27;;;7.10;1.00;;;;;;5074159;28;20209;-72
2022/11/08 05:54:52;;;;;;;65.05;8.85;;;7.00;1.00;;;;;;5074095;28;20221;-71
2022/11/08 05:57:19;;;;;;;63.95;8.00;;;7.10;1.00;;;;;;5073792;28;20263;-72
2022/11/08 05:59:47;;;;;;;66.05;7.85;;;7.20;1.00;;;;;;5073382;28;20205;-71
2022/11/08 06:02:16;;;;;;;67.20;9.35;;;7.20;1.00;;;;;;5073984;28;20209;-72
2022/11/08 06:04:42;;;;;;;67.97;9.73;;;7.20;1.00;;;;;;5073992;28;20640;-72
2022/11/08 06:07:09;;;;;;;65.88;9.90;;;7.20;1.00;;;;;;5073721;28;20229;-72
2022/11/08 06:09:36;;;;;;;64.80;8.30;;;7.20;1.00;;;;;;5072912;28;20205;-71
2022/11/08 06:12:03;;;;;;;64.93;8.70;;;7.20;1.00;;;;;;5073480;28;20201;-72
2022/11/08 06:14:30;;;;;;;64.80;8.85;;;7.20;1.00;;;;;;5073811;28;20804;-72
2022/11/08 06:16:58;;;;;;;66.05;8.43;;;7.30;1.00;;;;;;5073658;28;20259;-72
2022/11/08 06:19:25;;;;;;;66.30;7.95;;;7.30;1.00;;;;;;5072978;28;20223;-72
2022/11/08 06:21:52;;;;;;;66.65;8.40;;;7.30;1.00;;;;;;5073625;28;20205;-72
2022/11/08 06:24:18;;;;;;;65.18;8.77;;;7.10;1.00;;;;;;5073664;28;20197;-72
2022/11/08 06:26:45;;;;;;;64.80;8.65;;;7.30;1.00;;;;;;5073205;28;20204;-72
2022/11/08 06:29:12;;;;;;;64.72;7.90;;;7.40;1.00;;;;;;5072785;28;20202;-72
2022/11/08 06:31:39;;;;;;;64.55;8.02;;;7.50;1.00;;;;;;5073447;28;20670;-72
2022/11/08 06:34:07;;;;;;;64.07;8.50;;;7.50;1.00;;;;;;5073260;28;20691;-72
2022/11/08 06:36:34;;;;;;;63.22;8.45;;;7.40;1.00;;;;;;5073211;28;20205;-71
2022/11/08 06:39:00;;;;;;;63.92;9.02;;;7.50;1.00;;;;;;5072402;28;20221;-72
2022/11/08 06:41:28;;;;;;;67.47;7.90;;;7.50;1.00;;;;;;5073355;28;20201;-72
2022/11/08 06:43:55;;;;;;;63.75;7.50;;;7.50;1.00;;;;;;5073194;28;20201;-71
2022/11/08 06:46:22;;;;;;;65.07;7.72;;;7.50;1.00;;;;;;5073077;28;20211;-72
2022/11/08 06:48:49;;;;;;;65.75;9.25;;;7.60;1.00;;;;;;5072329;28;20231;-72
2022/11/08 06:51:17;;;;;;;65.53;8.35;;;7.70;1.00;;;;;;5072820;28;20205;-71
2022/11/08 06:53:44;;;;;;;65.47;8.45;;;7.70;1.00;;;;;;5072784;28;20625;-72
2022/11/08 06:56:12;;;;;;;64.65;8.70;;;7.80;1.00;;;;;;5072774;28;20731;-71
2022/11/08 06:58:39;;;;;;;67.13;9.05;;;7.80;1.00;;;;;;5072244;28;20236;-72
2022/11/08 07:01:08;;;;;;;66.18;8.25;;;7.90;1.00;;;;;;5072816;28;20223;-71
2022/11/08 07:03:35;;;;;;;72.57;8.77;;;7.90;1.00;;;;;;5072834;28;20205;-72
2022/11/08 07:06:02;;;;;;;66.85;9.15;;;7.70;1.00;;;;;;5072090;28;20206;-72
2022/11/08 07:08:31;;;;;;;63.53;8.27;;;7.60;1.00;;;;;;5072074;28;20225;-71
2022/11/08 07:10:57;;;;;;;64.93;8.70;;;7.80;1.00;;;;;;5072450;28;20213;-72
2022/11/08 07:13:24;;;;;;;65.88;9.20;;;7.90;1.00;;;;;;5072448;28;20209;-72
2022/11/08 07:15:51;;;;;;;64.57;9.15;;;8.00;1.00;;;;;;5072399;28;20236;-72
2022/11/08 07:18:19;;;;;;;65.70;8.57;;;8.10;1.00;;;;;;5072248;28;20225;-72
2022/11/08 07:20:46;;;;;;;63.90;8.30;;;8.10;1.00;;;;;;5071514;28;20627;-71
2022/11/08 07:23:13;;;;;;;63.85;8.73;;;8.20;1.00;;;;;;5072060;28;20217;-72
2022/11/08 07:25:41;;;;;;;64.65;9.25;;;8.30;1.00;;;;;;5072513;28;20207;-72
2022/11/08 07:28:13;;;;;;;63.72;7.80;;;8.40;1.00;;;;;;5072080;28;20733;-71
2022/11/08 07:30:39;;;;;;;63.10;8.38;;;8.60;1.00;;;;;;5071508;28;20213;-72
2022/11/08 07:33:06;;;;;;;64.57;8.40;;;8.60;1.00;;;;;;5072278;28;20229;-72
2022/11/08 07:35:33;;;;;;;63.57;8.20;;;8.70;1.00;;;;;;5071862;28;20487;-72
2022/11/08 07:38:00;;;;;;;65.60;8.67;;;9.00;1.00;;;;;;5072138;28;20473;-72
2022/11/08 07:40:27;;;;;;;64.17;8.40;;;9.10;1.00;;;;;;5071439;28;20448;-72
2022/11/08 07:42:57;;;;;;;66.80;9.32;;;9.30;1.00;;;;;;5072013;28;20463;-72
2022/11/08 07:45:24;;;;;;;63.78;8.27;;;9.50;1.00;;;;;;5071940;28;20213;-72
2022/11/08 07:47:57;;;;;;;66.50;9.30;;;9.40;1.00;;;;;;5071773;28;20229;-72
2022/11/08 07:50:24;;;;;;;66.37;8.90;;;9.50;1.00;;;;;;5071273;28;20453;-72
2022/11/08 07:52:51;;;;;;;64.95;9.05;;;9.40;1.00;;;;;;5071835;28;20953;-71
2022/11/08 07:55:18;;;;;;;62.67;7.90;;;9.30;1.00;;;;;;5071959;28;20232;-72
2022/11/08 07:57:45;;;;;;;68.40;8.53;;;9.20;1.00;;;;;;5071807;28;20478;-72
2022/11/08 08:00:15;;;;;;;63.17;7.87;;;9.00;1.00;;;;;;5070946;28;20952;-75
2022/11/08 08:02:41;;;;;;;65.13;8.17;;;8.60;1.00;;;;;;5071844;28;20989;-72
2022/11/08 08:05:09;;;;;;;64.33;7.87;;;8.30;1.00;;;;;;5072055;28;20446;-72
2022/11/08 08:07:36;;;;;;;63.65;8.52;;;8.70;1.00;;;;;;5071639;28;20552;-72
2022/11/08 08:10:04;;;;;;;71.17;8.10;;;8.90;1.00;;;;;;5070892;28;20205;-71
2022/11/08 08:12:31;;;;;;;67.10;8.45;;;8.90;1.00;;;;;;5071741;28;20454;-72
2022/11/08 08:14:57;;;;;;;69.10;8.47;;;9.20;1.00;;;;;;5071684;28;20233;-72
2022/11/08 08:17:25;;;;;;;70.33;8.93;;;9.50;1.00;;;;;;5071774;28;20476;-72
2022/11/08 08:19:52;;;;;;;64.00;8.20;;;9.80;1.00;;;;;;5074774;28;20462;-72
2022/11/08 08:22:19;;;;;;;64.03;8.40;;;9.80;1.00;;;;;;5075783;28;20471;-73
2022/11/08 08:24:46;;;;;;;68.90;8.37;;;9.80;1.00;;;;;;5075861;28;20452;-72
2022/11/08 08:27:12;;;;;;;63.53;7.63;;;9.80;1.00;;;;;;5075852;28;20474;-72
2022/11/08 08:29:39;;;;;;;62.87;7.20;;;9.90;1.00;;;;;;5074763;28;20450;-74
2022/11/08 08:32:06;;;;;;;61.97;6.47;;;10.20;1.00;;;;;;5075814;28;20451;-73
2022/11/08 08:34:34;;;;;;;68.27;6.87;;;10.80;1.00;;;;;;5075619;28;20456;-72
2022/11/08 08:37:01;;;;;;;59.97;6.10;;;11.20;1.00;;;;;;5075486;28;20459;-73
2022/11/08 08:39:28;;;;;;;61.43;5.70;;;11.10;1.00;;;;;;5074718;28;20457;-72
2022/11/08 08:41:55;;;;;;;62.93;5.73;;;10.80;1.00;;;;;;5075412;28;20454;-73
2022/11/08 08:44:22;;;;;;;65.00;6.00;;;10.80;1.00;;;;;;5075124;28;20968;-73
2022/11/08 08:46:48;;;;;;;62.77;5.93;;;10.90;1.00;;;;;;5075464;28;20447;-73
2022/11/08 08:49:15;;;;;;;60.77;5.00;;;11.00;1.00;;;;;;5074895;28;20447;-73
2022/11/08 08:51:43;;;;;;;60.27;5.90;;;11.00;1.00;;;;;;5074872;28;20459;-73
2022/11/08 08:54:13;;;;;;;61.40;5.03;;;11.50;1.00;;;;;;5075129;28;20447;-72
2022/11/08 08:56:40;;;;;;;64.03;5.80;;;12.20;1.00;;;;;;5075438;28;21002;-74
2022/11/08 08:59:07;;;;;;;62.30;6.73;;;12.80;1.00;;;;;;5074436;28;20467;-73
2022/11/08 09:01:33;;;;;;;60.77;5.67;;;13.40;1.00;;;;;;5075291;28;20451;-73
2022/11/08 09:04:00;;;;;;;60.27;4.90;;;13.80;1.00;;;;;;5075073;28;20450;-73
2022/11/08 09:06:27;;;;;;;60.53;4.67;;;13.80;1.00;;;;;;5074961;28;20450;-73
2022/11/08 09:08:55;;;;;;;60.53;5.10;;;14.20;1.00;;;;;;5074161;28;20477;-73
2022/11/08 09:11:22;;;;;;;64.17;5.83;;;14.50;1.00;;;;;;5074739;28;20455;-73
2022/11/08 09:13:49;;;;;;;61.70;5.43;;;14.60;1.00;;;;;;5075099;28;20534;-73
2022/11/08 09:16:16;;;;;;;63.83;5.63;;;14.70;1.00;;;;;;5074663;28;20493;-74
2022/11/08 09:18:42;;;;;;;62.60;6.20;;;15.00;1.00;;;;;;5073958;28;20477;-73
2022/11/08 09:21:09;;;;;;;61.37;5.80;;;15.00;1.00;;;;;;5074663;28;20450;-73
2022/11/08 09:23:36;;;;;;;62.37;5.57;;;15.00;1.00;;;;;;5074681;28;20465;-74
2022/11/08 09:26:05;;;;;;;65.07;6.13;;;15.30;1.00;;;;;;5074058;28;20678;-75
2022/11/08 09:28:33;;;;;;;60.90;5.70;;;15.50;1.00;;;;;;5072372;28;20493;-74
2022/11/08 09:31:04;;;;;;;68.10;6.10;;;16.60;1.00;;;;;;5075280;28;20828;-75
2022/11/08 09:33:31;;;;;;;60.33;5.00;;;18.80;99.90;;;;;;5074407;28;20449;-74
2022/11/08 09:36:00;;;;;;;61.37;5.90;;;20.90;99.90;;;;;;5074270;28;20495;-74
2022/11/08 09:38:27;;;;;;;60.17;5.83;;;20.10;99.90;;;;;;5073991;28;20967;-75
2022/11/08 09:41:04;;;;;;;60.37;5.40;;;19.30;99.90;;;;;;5073680;28;20447;-76
2022/11/08 09:43:45;;;;;;;60.93;4.93;;;18.30;99.90;;;;;;5074392;28;20454;-75
2022/11/08 09:46:18;;;;;;;64.10;5.17;;;17.90;99.90;;;;;;5074324;28;20443;-73
2022/11/08 09:48:45;;;;;;;69.13;5.07;;;18.10;99.90;;;;;;5074679;28;20472;-75
2022/11/08 09:51:15;;;;;;;60.20;4.73;;;19.10;99.90;;;;;;5075327;28;20458;-75
2022/11/08 09:53:48;;;;;;;60.90;4.93;;;20.70;99.90;;;;;;5076255;28;20658;-75
2022/11/08 09:56:22;;;;;;;60.50;5.20;;;22.20;99.90;;;;;;5075898;28;20483;-75
2022/11/08 09:58:53;;;;;;;59.57;4.87;;;22.70;99.90;;;;;;5074723;28;20475;-75
2022/11/08 10:01:21;;;;;;;61.57;5.60;;;22.70;99.90;;;;;;5075909;28;20451;-75
2022/11/08 10:03:50;;;;;;;60.73;4.90;;;22.60;99.90;;;;;;5075991;28;20447;-75
2022/11/08 10:06:56;;;;;;;61.90;5.50;;;21.90;99.90;;;;;;5075680;28;20465;-75
2022/11/08 10:09:37;;;;;;;59.17;4.70;;;21.50;99.90;;;;;;5012480;28;20445;-75
2022/11/08 10:12:17;;;;;;;60.10;4.60;;;22.00;99.90;;;;;;5070990;28;20984;-75
2022/11/08 10:15:00;;;;;;;59.90;4.77;;;22.80;99.90;;;;;;5075989;28;20457;-75
2022/11/08 10:17:40;;;;;;;59.27;4.53;;;23.50;99.90;;;;;;5075598;28;20463;-75
2022/11/08 10:20:16;;;;;;;59.57;4.27;;;22.70;99.90;;;;;;5075345;28;20431;-75
2022/11/08 10:22:52;;;;;;;64.33;4.90;;;21.80;99.90;;;;;;5075521;28;20921;-75
2022/11/08 10:25:23;;;;;;;60.97;4.70;;;21.10;99.90;;;;;;5075718;28;20457;-75
2022/11/08 10:27:54;;;;;;;60.77;5.17;;;20.70;99.90;;;;;;5073818;28;20550;-75
2022/11/08 10:30:25;;;;;;;61.07;5.23;;;20.10;99.90;;;;;;5072854;28;20447;-75
2022/11/08 10:32:54;;;;;;;61.10;4.80;;;19.50;99.90;;;;;;5073950;28;20459;-75
2022/11/08 10:35:27;;;;;;;61.40;5.10;;;19.00;99.90;;;;;;5073772;28;20517;-75
2022/11/08 10:37:55;;;;;;;60.97;4.93;;;17.90;99.90;;;;;;5073673;28;20478;-75
2022/11/08 10:40:33;;;;;;;63.50;5.70;;;17.50;99.90;;;;;;5072221;28;20451;-75
2022/11/08 10:43:06;;;;;;;60.00;4.90;;;17.70;99.90;;;;;;5073644;28;20465;-74
2022/11/08 10:45:35;;;;;;;60.63;5.53;;;18.40;99.90;;;;;;5073594;28;20443;-74
2022/11/08 10:48:01;;;;;;;61.17;6.20;;;19.10;99.90;;;;;;5073328;28;20470;-74
2022/11/08 10:50:40;;;;;;;61.80;6.13;;;19.30;99.90;;;;;;5072730;28;20979;-74
2022/11/08 10:53:16;;;;;;;60.97;5.20;;;19.50;99.90;;;;;;5073276;28;20974;-74
2022/11/08 10:55:48;;;;;;;61.80;4.33;;;19.90;99.90;;;;;;5073667;28;20506;-74
2022/11/08 10:58:35;;;;;;;59.53;4.50;;;20.00;99.90;;;;;;5073287;28;20475;-74
2022/11/08 11:01:07;;;;;;;62.67;5.30;;;20.20;99.90;;;;;;5073462;28;20451;-74
2022/11/08 11:03:34;;;;;;;74.23;11.73;;;20.50;99.90;;;;;;5073453;28;20565;-75
2022/11/08 11:06:02;;;;;;;60.97;6.20;;;20.90;99.90;;;;;;5072967;28;20976;-74
2022/11/08 11:08:29;;;;;;;59.27;3.77;;;20.90;99.90;;;;;;5072775;28;20475;-74
2022/11/08 11:10:56;;;;;;;58.50;3.80;;;20.80;99.90;;;;;;5073284;28;20827;-75
2022/11/08 11:13:25;;;;;;;59.60;3.90;;;20.20;99.90;;;;;;5073194;28;20451;-74
2022/11/08 11:15:59;;;;;;;59.27;3.67;;;19.40;99.90;;;;;;5073318;28;20825;-74
2022/11/08 11:18:30;;;;;;;61.60;4.40;;;19.10;99.90;;;;;;5072819;28;20590;-74
2022/11/08 11:20:59;;;;;;;63.93;4.13;;;19.50;99.90;;;;;;5073122;28;20483;-75
2022/11/08 11:23:34;;;;;;;60.80;3.80;;;20.10;99.90;;;;;;5072745;28;20467;-74
2022/11/08 11:26:01;;;;;;;59.10;4.27;;;20.40;99.90;;;;;;5073196;28;20955;-74
2022/11/08 11:28:28;;;;;;;58.90;3.40;;;20.10;99.90;;;;;;5072525;28;20476;-74
2022/11/08 11:31:00;;;;;;;59.10;4.30;;;19.80;99.90;;;;;;5072499;28;20470;-74
2022/11/08 11:33:32;;;;;;;61.60;4.00;;;20.00;99.90;;;;;;5073742;28;20853;-74
2022/11/08 11:36:04;;;;;;;58.63;3.70;;;19.70;99.90;;;;;;5073107;28;20499;-74
2022/11/08 11:38:38;;;;;;;60.37;4.30;;;19.30;99.90;;;;;;5072561;28;20467;-74
2022/11/08 11:41:13;;;;;;;59.77;3.70;;;19.20;99.90;;;;;;5073330;28;20449;-74
2022/11/08 11:43:44;;;;;;;59.90;3.90;;;19.20;99.90;;;;;;5073337;28;20918;-74
2022/11/08 11:46:19;;;;;;;59.90;4.00;;;19.00;99.90;;;;;;5072866;28;20502;-74
2022/11/08 11:48:53;;;;;;;60.20;4.50;;;18.70;99.90;;;;;;5071770;28;20575;-74
2022/11/08 11:51:20;;;;;;;65.03;8.00;;;19.30;99.90;;;;;;5072840;28;20970;-74
2022/11/08 11:53:47;;;;;;;63.30;7.07;;;19.80;99.90;;;;;;5072679;28;20451;-74
2022/11/08 11:56:41;;;;;;;61.90;5.17;;;20.30;99.90;;;;;;5072797;28;21015;-74
2022/11/08 11:59:31;;;;;;;65.87;7.30;;;20.50;99.90;;;;;;5072116;28;20471;-74
2022/11/08 12:02:19;;;;;;;69.67;11.27;;;20.40;99.90;;;;;;5072794;28;20455;-74
2022/11/08 12:05:03;;;;;;;67.40;7.50;;;20.50;99.90;;;;;;5073027;28;20459;-74
2022/11/08 12:07:32;;;;;;;67.27;8.80;;;20.80;99.90;;;;;;5072681;28;20805;-75
2022/11/08 12:10:14;;;;;;;68.03;8.63;;;21.00;99.90;;;;;;5071985;28;20443;-75
2022/11/08 12:12:51;;;;;;;64.30;7.53;;;21.10;99.90;;;;;;5073081;28;20803;-75
2022/11/08 12:15:27;;;;;;;63.00;6.80;;;21.20;99.90;;;;;;5073053;28;20447;-75
2022/11/08 12:18:09;;;;;;;60.67;4.47;;;21.70;99.90;;;;;;5072154;28;20470;-75
2022/11/08 12:20:49;;;;;;;61.37;5.10;;;22.50;99.90;;;;;;5071488;28;20455;-75
2022/11/08 12:23:39;;;;;;;58.87;3.57;;;22.30;99.90;;;;;;5072621;28;20473;-75
2022/11/08 12:26:15;;;;;;;60.47;4.23;;;22.70;99.90;;;;;;5061797;28;20470;-75
2022/11/08 12:28:52;;;;;;;59.23;4.07;;;24.20;99.90;;;;;;5071353;28;20477;-73
2022/11/08 12:31:26;;;;;;;59.80;4.00;;;24.90;99.90;;;;;;5072148;28;20824;-73
2022/11/08 12:34:20;;;;;;;59.77;3.70;;;24.50;99.90;;;;;;5072039;28;20454;-73
2022/11/08 12:36:57;;;;;;;59.50;3.83;;;25.00;99.90;;;;;;5066736;28;20497;-73
2022/11/08 12:39:34;;;;;;;61.17;3.57;;;24.50;99.90;;;;;;5071121;28;20458;-75
2022/11/08 12:42:21;;;;;;;58.57;3.50;;;25.20;99.90;;;;;;5071969;28;20462;-76
2022/11/08 12:45:13;;;;;;;59.30;3.50;;;27.20;99.90;;;;;;5066073;28;20457;-76
2022/11/08 12:47:47;;;;;;;58.80;3.50;;;29.30;99.90;;;;;;5071535;28;20482;-74
2022/11/08 12:50:22;;;;;;;58.37;2.93;;;32.60;99.90;;;;;;5072231;28;20802;-74
2022/11/08 12:53:20;;;;;;;59.17;3.40;;;33.70;99.90;;;;;;5072852;28;20525;-74
2022/11/08 12:55:48;;;;;;;58.70;3.30;;;33.80;99.90;;;;;;5072901;28;20457;-75
2022/11/08 12:58:25;;;;;;;58.10;3.10;;;34.40;99.90;;;;;;5073117;28;20482;-75
2022/11/08 13:00:56;;;;;;;59.47;3.50;;;32.30;99.90;;;;;;5073377;28;20450;-75
2022/11/08 13:03:55;;;;;;;59.80;3.20;;;29.10;99.90;;;;;;5073346;28;20538;-74
2022/11/08 13:06:26;;;;;;;58.90;3.50;;;27.30;99.90;;;;;;5078000;28;20541;-74
2022/11/08 13:09:04;;;;;;;58.10;3.47;;;26.40;99.90;;;;;;5076511;28;20474;-75
2022/11/08 13:11:39;;;;;;;58.27;3.77;;;24.70;99.90;;;;;;5077541;28;20464;-74
2022/11/08 13:14:12;;;;;;;59.87;3.50;;;23.40;99.90;;;;;;5077368;28;20457;-74
2022/11/08 13:16:43;;;;;;;60.10;4.23;;;23.00;99.90;;;;;;5077015;28;20514;-75
2022/11/08 13:19:27;;;;;;;60.17;3.37;;;22.80;99.90;;;;;;5076022;28;20534;-74
2022/11/08 13:21:54;;;;;;;58.73;4.00;;;23.80;99.90;;;;;;5076837;28;20458;-75
2022/11/08 13:24:36;;;;;;;61.13;3.50;;;24.50;99.90;;;;;;5075479;28;20474;-74
2022/11/08 13:27:23;;;;;;;58.60;3.40;;;24.80;99.90;;;;;;5077236;28;20453;-75